Time;durP1;ratioP1;P1;durP2;ratioP2;P2;SDS_P1;SDS_P2;PMS_P1;PMS_P2;Temp;Humidity;BMP_temperature;BMP_pressure;BME280_temperature;BME280_humidity;BME280_pressure;Samples;Min_cycle;Max_cycle;Signal;HPM_P1;HPM_P2
2023/05/16 00:00:34;;;;;;;19.73;15.18;;;11.40;99.90;;;;;;6069090;23;20023;-88
2023/05/16 00:03:21;;;;;;;19.48;15.98;;;11.30;1.00;;;;;;6051865;23;20054;-86
2023/05/16 00:06:09;;;;;;;26.88;16.52;;;11.30;1.00;;;;;;6050482;23;20027;-88
2023/05/16 00:08:58;;;;;;;22.90;17.02;;;11.30;1.00;;;;;;6048811;23;20136;-86
2023/05/16 00:11:47;;;;;;;23.35;18.13;;;11.30;1.00;;;;;;6049020;23;20035;-88
2023/05/16 00:14:35;;;;;;;21.63;17.73;;;11.30;53.50;;;;;;6050799;23;20459;-87
2023/05/16 00:17:27;;;;;;;25.63;18.33;;;11.30;97.10;;;;;;6049545;23;20034;-87
2023/05/16 00:20:18;;;;;;;23.92;17.83;;;11.30;99.90;;;;;;6068442;23;20034;-84
2023/05/16 00:23:05;;;;;;;30.70;19.70;;;11.20;99.90;;;;;;6079988;23;20086;-88
2023/05/16 00:25:52;;;;;;;31.02;22.05;;;11.20;99.90;;;;;;6061661;23;20062;-83
2023/05/16 00:28:39;;;;;;;29.73;21.33;;;11.10;99.90;;;;;;6078703;23;20031;-86
2023/05/16 00:31:26;;;;;;;34.35;22.52;;;11.00;99.90;;;;;;6055786;23;20031;-90
2023/05/16 00:34:13;;;;;;;34.35;24.40;;;11.00;99.90;;;;;;6055451;23;20395;-87
2023/05/16 00:37:04;;;;;;;37.28;24.65;;;11.00;99.90;;;;;;6055777;23;20307;-89
2023/05/16 00:39:51;;;;;;;36.75;25.33;;;11.00;1.00;;;;;;6053816;23;20027;-89
2023/05/16 00:42:39;;;;;;;32.50;24.85;;;11.00;1.00;;;;;;6049579;23;20024;-90
2023/05/16 00:45:27;;;;;;;35.50;24.38;;;11.00;1.00;;;;;;6048825;23;20032;-87
2023/05/16 00:48:14;;;;;;;36.28;24.48;;;10.90;1.00;;;;;;6048174;23;20023;-88
2023/05/16 00:51:02;;;;;;;33.55;24.45;;;10.90;1.00;;;;;;6047700;23;20031;-88
2023/05/16 00:53:49;;;;;;;32.50;24.65;;;10.90;1.00;;;;;;6049898;23;20031;-89
2023/05/16 00:56:39;;;;;;;33.80;25.50;;;10.90;1.00;;;;;;6044672;23;20055;-90
2023/05/16 00:59:26;;;;;;;34.28;26.60;;;10.80;15.80;;;;;;6040087;23;20035;-88
2023/05/16 01:02:14;;;;;;;37.83;26.52;;;10.80;98.70;;;;;;6035434;23;20024;-90
2023/05/16 01:05:04;;;;;;;37.88;28.58;;;10.70;99.90;;;;;;6035430;23;20086;-90
2023/05/16 01:07:51;;;;;;;42.13;30.02;;;10.70;99.90;;;;;;6035786;23;20037;-88
2023/05/16 01:11:04;;;;;;;42.20;30.65;;;10.70;1.00;;;;;;6035371;23;20126;-88
2023/05/16 01:14:29;;;;;;;47.95;32.78;;;10.70;99.90;;;;;;6034706;23;20378;-86
2023/05/16 01:17:22;;;;;;;46.15;33.38;;;10.70;99.90;;;;;;6035426;23;20035;-88
2023/05/16 01:20:29;;;;;;;50.47;34.83;;;10.70;99.90;;;;;;6034395;23;20174;-88
2023/05/16 01:23:16;;;;;;;54.55;34.75;;;10.70;99.90;;;;;;6034956;23;20064;-89
2023/05/16 01:26:26;;;;;;;52.15;34.97;;;10.70;99.90;;;;;;6037529;23;20330;-89
2023/05/16 01:29:15;;;;;;;51.47;34.90;;;10.70;99.90;;;;;;6038571;23;20481;-89
2023/05/16 01:32:02;;;;;;;53.50;35.92;;;10.70;99.90;;;;;;6040733;23;20106;-87
2023/05/16 01:34:51;;;;;;;57.15;37.60;;;10.70;1.00;;;;;;6040766;23;20031;-87
2023/05/16 01:37:45;;;;;;;58.22;37.03;;;10.70;1.00;;;;;;6040181;23;20564;-90
2023/05/16 01:40:59;;;;;;;54.90;37.95;;;10.70;1.00;;;;;;6037421;23;20035;-88
2023/05/16 01:43:50;;;;;;;58.58;38.33;;;10.70;4.40;;;;;;6038005;23;20058;-91
2023/05/16 01:46:43;;;;;;;60.83;38.35;;;10.60;1.00;;;;;;6036984;23;20027;-90
2023/05/16 01:49:39;;;;;;;65.47;40.47;;;10.60;1.00;;;;;;6035045;23;20122;-90
2023/05/16 01:52:45;;;;;;;69.80;42.00;;;10.60;40.70;;;;;;6035757;23;20035;-89
2023/05/16 01:55:45;;;;;;;68.15;42.72;;;10.50;99.90;;;;;;6034972;23;20502;-88
2023/05/16 01:58:34;;;;;;;63.25;42.03;;;10.50;99.90;;;;;;6035989;23;20023;-90
2023/05/16 02:01:22;;;;;;;71.60;43.60;;;10.40;99.90;;;;;;6035893;23;20031;-87
2023/05/16 02:04:09;;;;;;;78.47;45.50;;;10.40;99.90;;;;;;6036814;23;20028;-91
2023/05/16 02:06:59;;;;;;;79.88;44.22;;;10.40;99.90;;;;;;6033776;23;20059;-86
2023/05/16 02:09:46;;;;;;;70.32;44.10;;;10.30;99.90;;;;;;6054667;23;20027;-87
2023/05/16 02:12:36;;;;;;;74.43;44.08;;;10.40;99.90;;;;;;6033269;23;20041;-85
2023/05/16 02:15:23;;;;;;;75.93;44.88;;;10.30;99.90;;;;;;6053856;23;20038;-90
2023/05/16 02:18:11;;;;;;;73.85;46.20;;;10.30;99.90;;;;;;6033488;23;20034;-88
2023/05/16 02:20:58;;;;;;;79.95;45.83;;;10.30;99.90;;;;;;6034163;23;20038;-88
2023/05/16 02:23:45;;;;;;;76.50;46.40;;;10.20;99.90;;;;;;6033978;23;20027;-91
2023/05/16 02:26:32;;;;;;;73.70;44.70;;;10.20;99.90;;;;;;6053810;23;20031;-89
2023/05/16 02:29:22;;;;;;;76.63;47.65;;;10.10;1.00;;;;;;6037974;23;20430;-90
2023/05/16 02:32:09;;;;;;;87.07;47.03;;;10.00;1.00;;;;;;6034146;23;20035;-88
2023/05/16 02:34:56;;;;;;;87.85;49.38;;;10.00;45.50;;;;;;6034125;23;20319;-90
2023/05/16 02:37:43;;;;;;;97.88;51.55;;;10.00;99.90;;;;;;6033851;23;20042;-88
2023/05/16 02:40:30;;;;;;;86.63;48.83;;;10.00;1.00;;;;;;6036146;23;20378;-90
2023/05/16 02:43:20;;;;;;;90.70;51.75;;;9.90;15.80;;;;;;6036480;23;20031;-90
2023/05/16 02:46:29;;;;;;;86.50;49.53;;;9.90;99.90;;;;;;6036209;23;20245;-90
2023/05/16 02:49:19;;;;;;;95.93;52.45;;;9.90;1.00;;;;;;6032981;23;20031;-88
2023/05/16 02:52:06;;;;;;;100.35;53.67;;;9.90;99.90;;;;;;6040529;23;20305;-88
2023/05/16 02:54:56;;;;;;;105.93;54.85;;;9.90;99.90;;;;;;6037213;23;20027;-91
2023/05/16 02:58:04;;;;;;;97.47;54.17;;;9.90;1.00;;;;;;6040505;23;20042;-93
2023/05/16 03:00:51;;;;;;;104.65;56.38;;;9.90;29.00;;;;;;6034594;23;20106;-89
2023/05/16 03:03:39;;;;;;;101.90;54.92;;;9.90;99.90;;;;;;6038622;23;20040;-91
2023/05/16 03:06:26;;;;;;;105.60;56.90;;;9.90;99.90;;;;;;6017933;23;20058;-91
2023/05/16 03:09:13;;;;;;;114.88;57.55;;;9.90;99.90;;;;;;6043211;23;20351;-91
2023/05/16 03:12:00;;;;;;;104.97;54.53;;;9.90;1.00;;;;;;6037628;23;20050;-91
2023/05/16 03:14:48;;;;;;;113.68;57.15;;;9.90;1.00;;;;;;6035502;23;20099;-90
2023/05/16 03:17:35;;;;;;;112.95;59.60;;;9.90;1.00;;;;;;6036891;23;20032;-92
2023/05/16 03:20:22;;;;;;;107.15;58.83;;;9.90;1.00;;;;;;6034277;23;20031;-91
2023/05/16 03:23:10;;;;;;;122.25;61.92;;;9.90;1.00;;;;;;6036928;23;20359;-91
2023/05/16 03:25:58;;;;;;;118.15;59.95;;;9.80;33.90;;;;;;6035712;23;20023;-91
2023/05/16 03:28:45;;;;;;;122.47;60.80;;;9.80;97.70;;;;;;6038265;23;20039;-92
2023/05/16 03:31:32;;;;;;;119.90;61.38;;;9.80;99.90;;;;;;6038163;23;20027;-88
2023/05/16 03:34:22;;;;;;;128.93;65.38;;;9.80;99.90;;;;;;6043809;23;20129;-87
2023/05/16 03:37:09;;;;;;;124.55;64.35;;;9.80;99.90;;;;;;6064856;23;20035;-88
2023/05/16 03:39:57;;;;;;;129.82;67.15;;;9.80;99.90;;;;;;6044974;23;20028;-89
2023/05/16 03:42:44;;;;;;;120.70;63.22;;;9.80;99.90;;;;;;6038311;23;20439;-89
2023/05/16 03:45:31;;;;;;;125.22;64.18;;;9.80;99.90;;;;;;6042657;23;20027;-90
2023/05/16 03:48:19;;;;;;;134.50;66.38;;;9.80;99.90;;;;;;6035863;23;20070;-91
2023/05/16 03:51:06;;;;;;;133.32;65.20;;;9.80;99.90;;;;;;6034878;23;20028;-89
2023/05/16 03:53:59;;;;;;;133.35;66.20;;;9.80;99.90;;;;;;6038141;23;20035;-88
2023/05/16 03:56:48;;;;;;;140.32;68.05;;;9.90;99.90;;;;;;6034413;23;20027;-92
2023/05/16 03:59:37;;;;;;;142.75;70.05;;;9.90;99.90;;;;;;6054249;23;20038;-91
2023/05/16 04:02:59;;;;;;;139.65;68.72;;;9.90;99.90;;;;;;6033797;23;20023;-91
2023/05/16 04:06:37;;;;;;;135.35;66.40;;;9.90;99.90;;;;;;6035916;23;20054;-91
2023/05/16 04:09:27;;;;;;;132.00;65.95;;;10.00;99.90;;;;;;6034391;23;20331;-91
2023/05/16 04:12:14;;;;;;;136.15;66.03;;;10.00;99.90;;;;;;6052924;23;20031;-90
2023/05/16 04:15:03;;;;;;;132.27;66.05;;;10.00;99.90;;;;;;6037067;23;20450;-90
2023/05/16 04:17:51;;;;;;;131.57;64.20;;;10.10;99.90;;;;;;6035702;23;20038;-87
2023/05/16 04:20:40;;;;;;;130.35;64.82;;;10.10;99.90;;;;;;6034370;23;20059;-88
2023/05/16 04:23:27;;;;;;;135.82;66.13;;;10.20;99.90;;;;;;6035168;23;20023;-89
2023/05/16 04:26:15;;;;;;;137.00;66.43;;;10.20;99.90;;;;;;6034405;23;20081;-90
2023/05/16 04:29:02;;;;;;;125.63;63.40;;;10.20;99.90;;;;;;6034493;23;20106;-89
2023/05/16 04:31:50;;;;;;;132.30;67.43;;;10.20;99.90;;;;;;6036557;23;20039;-90
2023/05/16 04:34:37;;;;;;;133.35;64.82;;;10.30;99.90;;;;;;6038562;23;20031;-90
2023/05/16 04:37:26;;;;;;;131.45;66.35;;;10.30;99.90;;;;;;6035907;23;20118;-90
2023/05/16 04:40:13;;;;;;;125.68;63.47;;;10.30;99.90;;;;;;6032440;23;20050;-87
2023/05/16 04:43:01;;;;;;;119.13;61.72;;;10.40;99.90;;;;;;6032929;23;20063;-88
2023/05/16 04:45:48;;;;;;;119.38;60.40;;;10.40;99.90;;;;;;6034600;23;20019;-90
2023/05/16 04:48:38;;;;;;;123.53;62.22;;;10.40;99.90;;;;;;6037389;23;20106;-89
2023/05/16 04:51:25;;;;;;;114.15;59.63;;;10.50;99.90;;;;;;6035730;23;20027;-90
2023/05/16 04:54:13;;;;;;;113.40;60.28;;;10.50;99.90;;;;;;6034014;23;20273;-91
2023/05/16 04:57:00;;;;;;;97.93;55.63;;;10.50;99.90;;;;;;6038782;23;20070;-93
2023/05/16 04:59:47;;;;;;;108.05;57.90;;;10.60;99.90;;;;;;6033503;23;20335;-89
2023/05/16 05:02:35;;;;;;;103.10;55.50;;;10.60;99.90;;;;;;6039295;23;20051;-86
2023/05/16 05:05:22;;;;;;;108.10;55.63;;;10.70;99.90;;;;;;6037181;23;20096;-86
2023/05/16 05:08:09;;;;;;;100.00;56.92;;;10.70;99.90;;;;;;6056162;23;20098;-86
2023/05/16 05:10:57;;;;;;;98.57;54.20;;;10.70;19.20;;;;;;6039605;23;20055;-90
2023/05/16 05:13:44;;;;;;;91.03;52.72;;;10.80;1.00;;;;;;6034255;23;20038;-88
2023/05/16 05:16:32;;;;;;;96.97;53.72;;;10.70;99.90;;;;;;6055474;23;20039;-89
2023/05/16 05:19:19;;;;;;;93.78;53.72;;;10.70;99.90;;;;;;6033813;23;20046;-86
2023/05/16 05:22:09;;;;;;;101.25;55.03;;;10.80;1.00;;;;;;6057476;23;20032;-91
2023/05/16 05:24:58;;;;;;;95.40;53.42;;;10.80;99.90;;;;;;6034356;23;20049;-89
2023/05/16 05:27:47;;;;;;;93.93;52.85;;;10.80;1.00;;;;;;6054476;23;20027;-89
2023/05/16 05:30:34;;;;;;;92.72;52.38;;;10.80;99.90;;;;;;6039638;23;20042;-87
2023/05/16 05:33:28;;;;;;;89.10;53.10;;;10.90;75.30;;;;;;6052525;23;20066;-91
2023/05/16 05:36:22;;;;;;;90.43;52.10;;;11.00;99.90;;;;;;6033974;23;20102;-88
2023/05/16 07:33:55;;;;;;;49.13;32.90;;;11.10;99.90;;;;;;6262876;22;20106;-91
2023/05/16 07:37:13;;;;;;;49.30;33.03;;;11.20;99.90;;;;;;6226364;22;20032;-90
2023/05/16 07:40:24;;;;;;;;;;;;;;;;;;;;;
2023/05/16 07:47:07;;;;;;;47.13;30.58;;;11.40;1.00;;;;;;6184220;23;20036;-86
2023/05/16 07:49:54;;;;;;;37.55;26.15;;;11.40;1.00;;;;;;6160404;23;20454;-85
2023/05/16 07:53:05;;;;;;;42.30;26.25;;;11.30;99.90;;;;;;6162174;23;20035;-87
2023/05/16 07:56:01;;;;;;;33.58;24.23;;;11.40;99.90;;;;;;6164733;23;20025;-89
2023/05/16 07:58:54;;;;;;;31.00;22.85;;;11.70;99.90;;;;;;6168951;23;20155;-87
2023/05/16 08:02:31;;;;;;;;;;;;;;;;;;;;;
2023/05/16 08:06:19;;;;;;;;;;;;;;;;;;;;;
2023/05/16 08:09:33;;;;;;;28.65;19.88;;;12.50;99.90;;;;;;6268110;22;20031;-86
2023/05/16 08:15:54;;;;;;;34.90;22.13;;;12.30;99.90;;;;;;6277277;22;20027;-88
2023/05/16 10:28:23;;;;;;;;;;;;;;;;;;;;;
2023/05/16 10:36:47;;;;;;;;;;;;;;;;;;;;;
2023/05/16 11:05:01;;;;;;;37.92;21.45;;;11.30;99.90;;;;;;5826349;24;20102;-85
2023/05/16 11:12:08;;;;;;;30.90;20.05;;;11.70;99.90;;;;;;6117092;23;20022;-88
2023/05/16 11:15:37;;;;;;;;;;;;;;;;;;;;;
2023/05/16 11:20:10;;;;;;;29.00;18.35;;;11.80;99.90;;;;;;6215698;23;20029;-88
2023/05/16 11:28:18;;;;;;;;;;;;;;;;;;;;;
2023/05/16 11:31:45;;;;;;;25.65;17.35;;;11.30;99.90;;;;;;6206266;23;20017;-88
2023/05/16 11:35:07;;;;;;;29.65;17.83;;;11.00;1.00;;;;;;6190982;23;20091;-87
2023/05/16 11:39:09;;;;;;;;;;;;;;;;;;;;;
2023/05/16 14:20:55;;;;;;;6.00;5.18;;;9.80;99.90;;;;;;6213460;22;20024;-91
2023/05/16 14:23:52;;;;;;;10.35;5.65;;;9.90;1.00;;;;;;6252010;23;20023;-92
2023/05/16 14:27:17;;;;;;;9.70;6.00;;;10.00;1.00;;;;;;6259015;23;20016;-90
2023/05/16 14:30:19;;;;;;;7.22;5.25;;;10.10;99.90;;;;;;6258158;23;20034;-89
2023/05/16 14:33:52;;;;;;;8.23;4.65;;;10.20;1.00;;;;;;6254924;23;20748;-91
2023/05/16 14:37:19;;;;;;;10.98;4.60;;;10.20;1.00;;;;;;6201874;22;20064;-91
2023/05/16 14:40:20;;;;;;;10.65;4.82;;;10.30;99.90;;;;;;6249286;22;20354;-87
2023/05/16 14:43:10;;;;;;;10.18;4.45;;;10.40;1.00;;;;;;6248403;22;20491;-87
2023/05/16 14:46:00;;;;;;;7.00;4.00;;;10.70;1.00;;;;;;6246475;23;20047;-90
2023/05/16 14:48:47;;;;;;;7.97;4.85;;;10.80;99.90;;;;;;6243757;22;20480;-90
2023/05/16 14:51:37;;;;;;;10.80;4.70;;;10.90;99.90;;;;;;6245943;23;20027;-88
2023/05/16 14:54:24;;;;;;;6.65;3.95;;;10.90;1.00;;;;;;6245265;23;20107;-85
2023/05/16 14:57:13;;;;;;;8.55;4.78;;;10.90;99.90;;;;;;6246671;23;20024;-88
2023/05/16 15:00:01;;;;;;;25.25;14.85;;;10.80;99.90;;;;;;6245267;23;20449;-87
2023/05/16 15:02:48;;;;;;;18.52;7.95;;;11.00;3.00;;;;;;6245161;23;20031;-90
2023/05/16 15:05:36;;;;;;;11.95;6.90;;;11.10;1.00;;;;;;6246157;22;20315;-88
2023/05/16 15:08:24;;;;;;;9.02;5.28;;;11.20;99.90;;;;;;6246204;23;20050;-88
2023/05/16 15:11:18;;;;;;;5.45;3.65;;;11.30;99.90;;;;;;6253453;22;20070;-90
2023/05/16 15:14:07;;;;;;;6.65;3.58;;;11.40;99.90;;;;;;6252793;22;20031;-91
2023/05/16 15:16:58;;;;;;;6.55;2.85;;;11.50;46.70;;;;;;6245235;23;20115;-89
2023/05/16 15:19:49;;;;;;;12.77;4.65;;;11.50;1.00;;;;;;6252935;23;20028;-85
2023/05/16 15:22:42;;;;;;;6.78;3.58;;;11.60;99.90;;;;;;6249898;22;20193;-90
2023/05/16 15:25:32;;;;;;;6.45;3.35;;;11.60;99.90;;;;;;6247683;23;20035;-91
2023/05/16 15:28:19;;;;;;;9.30;4.85;;;11.50;99.90;;;;;;6251200;22;20039;-90
2023/05/16 15:31:11;;;;;;;5.20;3.40;;;11.60;99.90;;;;;;6244833;23;20388;-89
2023/05/16 15:34:07;;;;;;;6.45;4.47;;;11.60;99.90;;;;;;6246385;22;20024;-89
2023/05/16 15:36:55;;;;;;;11.38;5.38;;;11.80;99.90;;;;;;6248807;22;20327;-88
2023/05/16 15:39:44;;;;;;;9.07;3.70;;;11.90;99.90;;;;;;6245840;23;20032;-86
2023/05/16 15:42:32;;;;;;;12.20;4.80;;;11.90;99.90;;;;;;6245466;23;20055;-90
2023/05/16 15:45:19;;;;;;;8.05;3.85;;;12.00;57.80;;;;;;6247315;23;20028;-87
2023/05/16 15:48:43;;;;;;;7.25;3.78;;;12.00;11.20;;;;;;6250367;23;20048;-91
2023/05/16 15:51:36;;;;;;;9.48;3.90;;;11.80;1.00;;;;;;6250566;23;20024;-88
2023/05/16 15:54:27;;;;;;;6.72;3.75;;;11.90;1.00;;;;;;6246811;23;20308;-90
2023/05/16 15:57:15;;;;;;;6.90;3.15;;;12.10;1.00;;;;;;6249083;23;20024;-91
2023/05/16 16:00:09;;;;;;;12.73;4.05;;;12.10;1.00;;;;;;6250949;23;20121;-88
2023/05/16 16:03:00;;;;;;;8.43;3.42;;;12.20;99.90;;;;;;6251599;22;20028;-84
2023/05/16 16:05:50;;;;;;;10.02;4.38;;;12.40;99.90;;;;;;6248903;23;20451;-91
2023/05/16 16:08:38;;;;;;;8.63;3.58;;;12.50;99.90;;;;;;6250630;23;20039;-90
2023/05/16 16:11:32;;;;;;;10.68;3.35;;;12.70;99.90;;;;;;6252502;22;20032;-88
2023/05/16 16:14:40;;;;;;;13.13;3.97;;;12.80;99.90;;;;;;6248149;23;20052;-90
2023/05/16 16:17:28;;;;;;;92.82;46.80;;;12.40;99.90;;;;;;6250177;23;20036;-89
2023/05/16 16:20:26;;;;;;;14.30;6.38;;;12.30;99.90;;;;;;6249837;23;20024;-88
2023/05/16 16:23:14;;;;;;;12.63;6.28;;;12.40;99.90;;;;;;6275747;22;20108;-87
2023/05/16 16:26:05;;;;;;;27.98;13.48;;;12.70;99.90;;;;;;6251579;22;20075;-92
2023/05/16 16:28:53;;;;;;;9.10;3.17;;;12.70;99.90;;;;;;6274336;22;20028;-88
2023/05/16 16:31:42;;;;;;;9.68;3.88;;;12.50;99.90;;;;;;6250867;22;20020;-88
2023/05/16 16:34:30;;;;;;;27.95;14.20;;;12.20;99.90;;;;;;6251926;23;20020;-87
2023/05/16 16:37:18;;;;;;;7.43;3.13;;;12.00;88.00;;;;;;6249513;23;20024;-89
2023/05/16 16:40:14;;;;;;;7.53;3.28;;;11.90;99.90;;;;;;6251913;23;20085;-90
2023/05/16 16:43:04;;;;;;;12.13;3.35;;;11.50;99.90;;;;;;6252321;23;20036;-88
2023/05/16 16:45:55;;;;;;;9.05;3.13;;;11.40;99.90;;;;;;6255382;22;20024;-91
2023/05/16 16:48:51;;;;;;;19.67;7.95;;;11.20;99.90;;;;;;6252139;23;20031;-86
2023/05/16 16:51:40;;;;;;;14.20;5.93;;;11.20;99.90;;;;;;6250557;23;20435;-90
2023/05/16 16:54:31;;;;;;;7.90;3.42;;;11.20;99.90;;;;;;6249384;23;20095;-89
2023/05/16 16:57:21;;;;;;;11.77;3.83;;;11.20;99.90;;;;;;6248236;23;20370;-90
2023/05/16 17:00:13;;;;;;;15.07;7.15;;;11.20;99.90;;;;;;6248603;22;20339;-89
2023/05/16 17:03:02;;;;;;;14.63;5.97;;;11.20;99.90;;;;;;6250225;23;20024;-87
2023/05/16 17:05:51;;;;;;;10.02;2.95;;;11.20;99.90;;;;;;6245408;23;20024;-88
2023/05/16 17:08:40;;;;;;;10.20;2.92;;;11.10;99.90;;;;;;6253783;22;20016;-90
2023/05/16 17:11:28;;;;;;;16.10;2.83;;;11.20;99.90;;;;;;6270516;22;20397;-86
2023/05/16 17:14:16;;;;;;;10.90;3.70;;;11.10;99.90;;;;;;6246292;23;20039;-89
2023/05/16 17:17:04;;;;;;;5.93;2.22;;;11.00;99.90;;;;;;6249868;23;20071;-89
2023/05/16 17:19:56;;;;;;;9.48;3.80;;;11.00;99.90;;;;;;6247434;23;20020;-90
2023/05/16 17:22:44;;;;;;;9.48;2.17;;;11.00;99.90;;;;;;6249431;22;20039;-90
2023/05/16 17:25:34;;;;;;;12.30;2.65;;;10.90;95.60;;;;;;6244825;23;20028;-91
2023/05/16 17:28:22;;;;;;;9.98;2.42;;;10.90;93.00;;;;;;6247200;23;20050;-90
2023/05/16 17:31:12;;;;;;;6.53;2.60;;;10.90;97.20;;;;;;6249456;22;20079;-87
2023/05/16 17:34:02;;;;;;;7.15;2.38;;;10.80;91.80;;;;;;6267879;22;20024;-88
2023/05/16 17:36:50;;;;;;;5.78;2.80;;;10.80;68.80;;;;;;6248586;23;20157;-89
2023/05/16 17:39:40;;;;;;;7.03;2.40;;;10.70;48.60;;;;;;6246361;23;20081;-92
2023/05/16 17:42:27;;;;;;;8.80;2.75;;;10.70;36.90;;;;;;6268791;22;20048;-89
2023/05/16 17:45:15;;;;;;;9.55;2.50;;;10.60;34.80;;;;;;6248081;23;20028;-89
2023/05/16 17:48:03;;;;;;;9.10;2.25;;;10.60;37.60;;;;;;6246528;23;20038;-89
2023/05/16 17:50:51;;;;;;;6.30;2.15;;;10.50;3.30;;;;;;6250199;22;20068;-88
2023/05/16 17:53:51;;;;;;;8.52;2.55;;;10.50;1.00;;;;;;6247485;23;20034;-86
2023/05/16 17:57:01;;;;;;;;;;;10.50;10.30;;;;;;6248443;23;20028;-90
2023/05/16 17:59:49;;;;;;;7.78;2.17;;;10.40;1.00;;;;;;6247597;23;19994;-89
2023/05/16 18:02:38;;;;;;;9.57;2.13;;;10.40;1.00;;;;;;6246594;23;20059;-89
2023/05/16 18:05:28;;;;;;;8.98;2.10;;;10.40;1.00;;;;;;6249708;22;20035;-87
2023/05/16 18:08:16;;;;;;;7.63;2.28;;;10.40;1.00;;;;;;6245476;23;20024;-89
2023/05/16 18:11:03;;;;;;;9.57;2.40;;;10.40;1.00;;;;;;6246200;23;20028;-89
2023/05/16 18:13:51;;;;;;;7.85;2.22;;;10.40;1.00;;;;;;6247304;22;20035;-91
2023/05/16 18:16:41;;;;;;;11.02;2.45;;;10.40;1.00;;;;;;6249855;23;20027;-88
2023/05/16 18:19:30;;;;;;;4.97;1.88;;;10.30;1.00;;;;;;6266548;22;20123;-90
2023/05/16 18:22:22;;;;;;;7.05;2.30;;;10.30;1.00;;;;;;6255665;22;20086;-91
2023/05/16 18:25:10;;;;;;;11.38;2.80;;;10.30;1.00;;;;;;6251138;22;20164;-92
2023/05/16 18:28:11;;;;;;;4.53;2.17;;;10.20;1.00;;;;;;6249140;22;20028;-90
2023/05/16 18:31:02;;;;;;;11.75;2.42;;;10.10;1.00;;;;;;6248396;22;20078;-86
2023/05/16 18:33:50;;;;;;;4.95;2.28;;;10.10;1.00;;;;;;6246239;23;20031;-89
2023/05/16 18:36:42;;;;;;;7.60;2.13;;;10.00;1.00;;;;;;6245108;23;20367;-88
2023/05/16 18:39:30;;;;;;;9.90;2.38;;;9.90;1.00;;;;;;6266826;22;20020;-91
2023/05/16 18:42:18;;;;;;;8.52;2.40;;;9.70;1.00;;;;;;6247219;23;20032;-88
2023/05/16 18:45:09;;;;;;;10.65;2.38;;;9.50;1.00;;;;;;6246561;23;20039;-88
2023/05/16 18:47:57;;;;;;;8.88;2.28;;;9.50;1.00;;;;;;6268745;22;20028;-87
2023/05/16 18:50:45;;;;;;;10.13;2.30;;;9.30;1.00;;;;;;6245801;23;20123;-86
2023/05/16 18:53:34;;;;;;;7.72;2.05;;;9.30;1.00;;;;;;6247826;23;20024;-90
2023/05/16 18:56:25;;;;;;;10.43;2.33;;;9.20;1.00;;;;;;6248722;23;20127;-86
2023/05/16 18:59:17;;;;;;;6.05;2.03;;;9.10;1.00;;;;;;6248625;23;20098;-88
2023/05/16 19:02:05;;;;;;;9.48;2.95;;;9.00;1.00;;;;;;6246534;23;20630;-88
2023/05/16 19:04:52;;;;;;;5.97;2.22;;;8.90;1.00;;;;;;6247575;23;20103;-88
2023/05/16 19:07:40;;;;;;;6.32;2.05;;;8.90;1.00;;;;;;6246826;23;20024;-88
2023/05/16 19:10:36;;;;;;;8.27;2.58;;;8.80;1.00;;;;;;6246440;23;20408;-92
2023/05/16 19:13:27;;;;;;;4.78;2.10;;;8.70;1.00;;;;;;6253052;22;20032;-88
2023/05/16 19:16:17;;;;;;;7.30;2.50;;;8.60;1.00;;;;;;6258507;23;20039;-88
2023/05/16 19:19:06;;;;;;;8.95;2.17;;;8.60;1.00;;;;;;6258871;23;20024;-87
2023/05/16 19:21:55;;;;;;;5.80;2.95;;;8.60;1.00;;;;;;6255768;22;20020;-88
2023/05/16 19:24:45;;;;;;;8.43;2.05;;;8.60;1.00;;;;;;6257091;23;20078;-92
2023/05/16 19:27:33;;;;;;;6.50;2.00;;;8.60;1.00;;;;;;6252270;23;20020;-89
2023/05/16 19:30:22;;;;;;;5.22;1.70;;;8.60;1.00;;;;;;6249745;23;20052;-90
2023/05/16 19:33:10;;;;;;;5.93;1.88;;;8.60;1.00;;;;;;6253537;22;20024;-92
2023/05/16 19:35:58;;;;;;;5.68;1.77;;;8.60;1.00;;;;;;6255915;23;20167;-89
2023/05/16 19:38:45;;;;;;;6.50;1.83;;;8.60;1.00;;;;;;6253099;23;20020;-89
2023/05/16 19:41:33;;;;;;;11.77;2.30;;;8.60;1.00;;;;;;6254217;23;20024;-83
2023/05/16 19:44:21;;;;;;;8.10;1.80;;;8.50;1.00;;;;;;6249875;23;20098;-91
2023/05/16 19:47:08;;;;;;;8.80;2.20;;;8.40;1.00;;;;;;6248649;23;20103;-91
2023/05/16 19:49:57;;;;;;;6.05;1.50;;;8.40;1.00;;;;;;6247539;23;20085;-88
2023/05/16 19:52:45;;;;;;;7.53;1.40;;;8.50;1.00;;;;;;6269620;22;20028;-90
2023/05/16 19:55:35;;;;;;;4.93;1.80;;;8.50;1.00;;;;;;6247824;23;20035;-87
2023/05/16 19:58:25;;;;;;;7.85;2.03;;;8.40;99.90;;;;;;6249149;23;20016;-88
2023/05/16 20:01:15;;;;;;;5.95;1.33;;;8.30;1.00;;;;;;6248852;22;20024;-88
2023/05/16 20:04:04;;;;;;;6.57;2.03;;;8.30;99.90;;;;;;6248345;23;20371;-87
2023/05/16 20:06:52;;;;;;;6.43;1.52;;;8.20;99.90;;;;;;6249733;22;20055;-88
2023/05/16 20:09:39;;;;;;;7.10;1.58;;;8.20;99.90;;;;;;6250314;22;20055;-89
2023/05/16 20:12:27;;;;;;;3.55;1.35;;;8.20;99.90;;;;;;6267803;22;20028;-89
2023/05/16 20:15:15;;;;;;;7.82;1.40;;;8.20;99.90;;;;;;6251348;22;20042;-86
2023/05/16 20:18:06;;;;;;;7.00;1.77;;;8.20;99.90;;;;;;6248703;23;20020;-89
2023/05/16 20:20:54;;;;;;;5.55;1.38;;;8.20;99.90;;;;;;6251250;23;20032;-85
2023/05/16 20:23:47;;;;;;;12.93;2.00;;;8.20;99.90;;;;;;6247691;23;20286;-88
2023/05/16 20:26:38;;;;;;;6.60;1.60;;;8.10;99.90;;;;;;6248799;23;20085;-86
2023/05/16 20:29:32;;;;;;;10.20;2.00;;;8.10;99.90;;;;;;6250376;23;20366;-89
2023/05/16 20:32:20;;;;;;;6.63;2.38;;;8.10;99.90;;;;;;6255842;22;20034;-89
2023/05/16 20:35:10;;;;;;;7.68;1.50;;;8.10;99.90;;;;;;6250176;22;20058;-86
2023/05/16 20:37:58;;;;;;;10.23;1.58;;;8.10;99.90;;;;;;6267792;22;20031;-91
2023/05/16 20:40:46;;;;;;;5.53;1.35;;;8.00;99.90;;;;;;6266419;22;20023;-87
2023/05/16 20:43:34;;;;;;;7.13;1.63;;;8.00;99.90;;;;;;6247720;22;20024;-87
2023/05/16 20:46:21;;;;;;;4.60;1.73;;;8.00;99.90;;;;;;6245846;23;20028;-89
2023/05/16 20:49:12;;;;;;;5.93;1.88;;;7.90;99.90;;;;;;6247292;23;20028;-90
2023/05/16 20:51:59;;;;;;;7.78;1.80;;;7.90;99.90;;;;;;6247629;22;20023;-89
2023/05/16 20:54:48;;;;;;;6.03;1.52;;;7.80;99.90;;;;;;6245941;23;20020;-89
2023/05/16 20:57:35;;;;;;;5.65;1.35;;;7.80;99.90;;;;;;6246874;23;20031;-88
2023/05/16 21:00:23;;;;;;;5.75;1.60;;;7.70;99.90;;;;;;6246606;23;20453;-87
2023/05/16 21:03:13;;;;;;;11.82;1.70;;;7.70;99.90;;;;;;6246189;23;20103;-86
2023/05/16 21:06:01;;;;;;;12.18;1.80;;;7.60;99.90;;;;;;6247902;22;20028;-90
2023/05/16 21:08:48;;;;;;;6.95;1.65;;;7.60;99.90;;;;;;6249162;22;20030;-88
2023/05/16 21:11:35;;;;;;;5.78;1.52;;;7.60;99.90;;;;;;6246883;23;20028;-88
2023/05/16 21:14:24;;;;;;;7.03;1.75;;;7.60;99.90;;;;;;6262363;23;20020;-86
2023/05/16 21:17:11;;;;;;;8.05;2.17;;;7.50;99.90;;;;;;6255569;22;20028;-88
2023/05/16 21:19:58;;;;;;;12.90;2.05;;;7.50;99.90;;;;;;6251749;23;20024;-87
2023/05/16 21:22:46;;;;;;;6.75;1.63;;;7.40;99.90;;;;;;6253745;23;20383;-87
2023/05/16 21:25:33;;;;;;;8.68;2.13;;;7.30;99.90;;;;;;6253447;23;20441;-87
2023/05/16 21:28:21;;;;;;;7.72;1.80;;;7.30;99.90;;;;;;6250979;23;20031;-86
2023/05/16 21:31:08;;;;;;;5.18;1.98;;;7.30;1.00;;;;;;6253029;22;20024;-87
2023/05/16 21:33:57;;;;;;;7.28;1.73;;;7.20;1.00;;;;;;6273512;22;20036;-87
2023/05/16 21:36:45;;;;;;;6.13;1.80;;;7.20;1.00;;;;;;6253795;23;20027;-85
2023/05/16 21:39:32;;;;;;;6.88;1.50;;;7.20;1.00;;;;;;6252895;23;20020;-88
2023/05/16 21:42:20;;;;;;;8.93;1.70;;;7.20;1.00;;;;;;6248109;23;20032;-88
2023/05/16 21:45:15;;;;;;;8.13;2.10;;;7.10;1.00;;;;;;6247209;23;20024;-87
2023/05/16 21:48:05;;;;;;;8.88;1.92;;;7.00;1.00;;;;;;6246229;23;20032;-88
2023/05/16 21:50:55;;;;;;;7.55;1.77;;;7.00;1.00;;;;;;6247182;23;20086;-87
2023/05/16 21:53:42;;;;;;;8.13;1.90;;;7.00;1.00;;;;;;6248336;23;20028;-86
2023/05/16 21:56:29;;;;;;;5.32;2.03;;;7.00;1.00;;;;;;6251054;23;20708;-85
2023/05/16 21:59:16;;;;;;;8.10;2.13;;;7.00;1.00;;;;;;6250481;23;20035;-87
2023/05/16 22:02:09;;;;;;;7.97;1.55;;;7.00;1.00;;;;;;6245197;23;20285;-87
2023/05/16 22:05:04;;;;;;;10.07;2.05;;;7.00;1.00;;;;;;6248405;23;20054;-85
2023/05/16 22:07:57;;;;;;;5.50;2.20;;;7.00;1.00;;;;;;6248094;23;20370;-86
2023/05/16 22:10:44;;;;;;;4.05;1.70;;;7.00;1.00;;;;;;6246111;23;20055;-86
2023/05/16 22:13:32;;;;;;;7.13;1.48;;;7.00;1.00;;;;;;6245931;23;20093;-88
2023/05/16 22:16:19;;;;;;;3.50;1.60;;;7.00;1.00;;;;;;6249409;22;20031;-89
2023/05/16 22:19:07;;;;;;;6.47;1.60;;;7.00;99.90;;;;;;6247993;22;20099;-88
2023/05/16 22:21:55;;;;;;;5.75;2.17;;;7.00;1.00;;;;;;6246821;23;20106;-85
2023/05/16 22:24:42;;;;;;;4.82;1.58;;;7.00;99.90;;;;;;6244767;23;20028;-86
2023/05/16 22:27:29;;;;;;;5.35;2.03;;;7.00;99.90;;;;;;6248242;22;20028;-87
2023/05/16 22:30:17;;;;;;;4.50;1.63;;;7.00;99.90;;;;;;6245421;23;20032;-87
2023/05/16 22:33:04;;;;;;;5.78;1.95;;;6.90;1.00;;;;;;6246032;23;20066;-87